Sat, 17 Apr 2021 09:49:16 UTC

Information for RPM brotli-1.0.7-9.fc32.aarch64.rpm

ID19841045
Namebrotli
Version1.0.7
Release9.fc32
Epoch
Archaarch64
SummaryLossless compression algorithm
DescriptionBrotli is a generic-purpose lossless compression algorithm that compresses data using a combination of a modern variant of the LZ77 algorithm, Huffman coding and 2nd order context modeling, with a compression ratio comparable to the best currently available general-purpose compression methods. It is similar in speed with deflate but offers more dense compression.
Build Time2019-12-10 23:30:41 GMT
Size327,693
93955596e1aac09670b6e421909b15f1
LicenseMIT
Buildrootf32-build-18419387-1313909
Provides
brotli = 1.0.7-9.fc32
brotli(aarch-64) = 1.0.7-9.fc32
Obsoletes No Obsoletes
Conflicts No Conflicts
Requires
ld-linux-aarch64.so.1()(64bit)
ld-linux-aarch64.so.1(GLIBC_2.17)(64bit)
libbrotli(aarch-64) = 1.0.7-9.fc32
libc.so.6()(64bit)
libc.so.6(GLIBC_2.17)(64bit)
libm.so.6()(64bit)
libm.so.6(GLIBC_2.29)(64bit)
rpmlib(CompressedFileNames) <= 3.0.4-1
rpmlib(FileDigests) <= 4.6.0-1
rpmlib(PayloadFilesHavePrefix) <= 4.0-1
rpmlib(PayloadIsZstd) <= 5.4.18-1
rtld(GNU_HASH)
Recommends No Recommends
Suggests No Suggests
Supplements No Supplements
Enhances No Enhances
Files
1 through 4 of 4
Name ascending sort Size
/usr/bin/brotli728,008
/usr/lib/.build-id0
/usr/lib/.build-id/0a0
/usr/lib/.build-id/0a/dd2e1cdd10b81fe54eb9b335de9ce7b2f1c2a726
Component of
Page:
1 through 50 of 1671 >>>
Buildroot Created State ascending sort
f32-build-18422474-1314569 2019-12-11 22:19:27 expired
f32-build-18422491-1314577 2019-12-11 22:24:17 expired
f32-build-18422505-1314577 2019-12-11 22:32:02 expired
f32-build-18422561-1314577 2019-12-11 22:41:15 expired
f32-build-18422805-1314617 2019-12-11 23:13:53 expired
f32-build-18423017-1314617 2019-12-12 01:23:49 expired
f32-build-18423057-1314650 2019-12-12 05:17:48 expired
f32-build-18423604-1314900 2019-12-12 11:56:06 expired
f32-build-18423836-1315003 2019-12-12 13:34:27 expired
f32-build-18425548-1315197 2019-12-12 17:04:29 expired
f32-build-18426383-1315250 2019-12-12 18:57:18 expired
f32-build-18426700-1315316 2019-12-12 20:41:04 expired
f32-build-18427229-1315358 2019-12-12 21:59:24 expired
f32-build-18427347-1315369 2019-12-12 22:20:52 expired
f32-build-18427463-1315397 2019-12-12 22:35:13 expired
f32-build-18427470-1315369 2019-12-12 22:35:26 expired
f32-build-18427482-1315369 2019-12-12 22:36:13 expired
f32-build-18427639-1315397 2019-12-12 23:00:24 expired
f32-build-18427645-1315397 2019-12-12 23:00:35 expired
f32-build-18427708-1315397 2019-12-12 23:10:26 expired
f32-build-18427884-1315397 2019-12-12 23:35:55 expired
f32-build-18428001-1315397 2019-12-12 23:49:18 expired
f32-build-18428075-1315407 2019-12-12 23:57:18 expired
f32-build-18428204-1315407 2019-12-13 00:05:32 expired
f32-build-18428228-1315407 2019-12-13 00:07:18 expired
f32-build-18428327-1315432 2019-12-13 00:17:11 expired
f32-build-18428343-1315432 2019-12-13 00:18:25 expired
f32-build-18428348-1315432 2019-12-13 00:19:10 expired
f32-build-18428395-1315432 2019-12-13 00:26:01 expired
f32-build-18428411-1315432 2019-12-13 00:26:42 expired
f32-build-18428477-1315432 2019-12-13 00:34:34 expired
f32-build-18428501-1315432 2019-12-13 00:38:59 expired
f32-build-18428520-1315432 2019-12-13 00:39:39 expired
f32-build-18428606-1315444 2019-12-13 00:48:17 expired
f32-build-18428647-1315444 2019-12-13 00:54:33 expired
f32-build-18428652-1315444 2019-12-13 00:55:11 expired
f32-build-18428689-1315447 2019-12-13 00:59:38 expired
f32-build-18428691-1315447 2019-12-13 00:59:38 expired
f32-build-18428714-1315447 2019-12-13 01:00:34 expired
f32-build-18428739-1315447 2019-12-13 01:02:29 expired
f32-build-18428776-1315447 2019-12-13 01:09:12 expired
f32-build-18428796-1315447 2019-12-13 01:10:05 expired
f32-build-18428892-1315447 2019-12-13 01:15:08 expired
f32-build-18428983-1315447 2019-12-13 01:25:24 expired
f32-build-18429278-1315447 2019-12-13 01:48:42 expired
f32-build-18429378-1315447 2019-12-13 02:01:59 expired
f32-build-18429499-1315447 2019-12-13 02:14:37 expired
f32-build-18429524-1315447 2019-12-13 02:17:52 expired
f32-build-18429583-1315447 2019-12-13 02:24:36 expired
f32-build-18421343-1314124 2019-12-11 15:00:51 expired